sensor_id;sensor_type;location;lat;lon;timestamp;temperature;humidity
3055;DHT22;1537;52.018;8.542;2023-07-29T00:00:03;19.60;99.90
3055;DHT22;1537;52.018;8.542;2023-07-29T00:03:34;19.50;99.90
3055;DHT22;1537;52.018;8.542;2023-07-29T00:06:57;19.60;99.90
3055;DHT22;1537;52.018;8.542;2023-07-29T00:10:21;19.60;99.90
3055;DHT22;1537;52.018;8.542;2023-07-29T00:13:45;19.60;99.90
3055;DHT22;1537;52.018;8.542;2023-07-29T00:17:11;19.60;99.90
3055;DHT22;1537;52.018;8.542;2023-07-29T00:20:34;19.70;99.90
3055;DHT22;1537;52.018;8.542;2023-07-29T00:23:58;19.70;99.90
3055;DHT22;1537;52.018;8.542;2023-07-29T00:27:23;19.70;99.90
3055;DHT22;1537;52.018;8.542;2023-07-29T00:30:47;19.70;99.90
3055;DHT22;1537;52.018;8.542;2023-07-29T00:34:11;19.60;99.90
3055;DHT22;1537;52.018;8.542;2023-07-29T00:37:39;19.60;99.90
3055;DHT22;1537;52.018;8.542;2023-07-29T00:41:03;19.60;99.90
3055;DHT22;1537;52.018;8.542;2023-07-29T00:44:27;19.60;99.90
3055;DHT22;1537;52.018;8.542;2023-07-29T00:47:50;19.60;99.90
3055;DHT22;1537;52.018;8.542;2023-07-29T00:51:16;19.60;99.90
3055;DHT22;1537;52.018;8.542;2023-07-29T00:54:39;19.60;99.90
3055;DHT22;1537;52.018;8.542;2023-07-29T00:58:03;19.50;99.90
3055;DHT22;1537;52.018;8.542;2023-07-29T01:01:28;19.50;99.90
3055;DHT22;1537;52.018;8.542;2023-07-29T01:04:53;19.40;99.90
3055;DHT22;1537;52.018;8.542;2023-07-29T01:08:24;19.40;99.90
3055;DHT22;1537;52.018;8.542;2023-07-29T01:11:57;19.40;99.90
3055;DHT22;1537;52.018;8.542;2023-07-29T01:15:26;19.40;99.90
3055;DHT22;1537;52.018;8.542;2023-07-29T01:18:54;19.30;99.90
3055;DHT22;1537;52.018;8.542;2023-07-29T01:22:19;19.30;99.90
3055;DHT22;1537;52.018;8.542;2023-07-29T01:25:45;19.40;99.90
3055;DHT22;1537;52.018;8.542;2023-07-29T01:29:09;19.40;99.90
3055;DHT22;1537;52.018;8.542;2023-07-29T01:32:37;19.40;99.90
3055;DHT22;1537;52.018;8.542;2023-07-29T01:36:07;19.40;99.90
3055;DHT22;1537;52.018;8.542;2023-07-29T01:39:32;19.40;99.90
3055;DHT22;1537;52.018;8.542;2023-07-29T01:42:59;19.30;99.90
3055;DHT22;1537;52.018;8.542;2023-07-29T01:46:23;19.30;99.90
3055;DHT22;1537;52.018;8.542;2023-07-29T01:49:47;19.30;99.90
3055;DHT22;1537;52.018;8.542;2023-07-29T01:53:10;19.30;99.90
3055;DHT22;1537;52.018;8.542;2023-07-29T01:56:34;19.30;99.90
3055;DHT22;1537;52.018;8.542;2023-07-29T02:00:00;19.20;99.90
3055;DHT22;1537;52.018;8.542;2023-07-29T02:03:24;19.20;99.90
3055;DHT22;1537;52.018;8.542;2023-07-29T02:06:47;19.20;99.90
3055;DHT22;1537;52.018;8.542;2023-07-29T02:10:11;19.20;99.90
3055;DHT22;1537;52.018;8.542;2023-07-29T02:13:35;19.10;99.90
3055;DHT22;1537;52.018;8.542;2023-07-29T02:17:00;19.10;99.90
3055;DHT22;1537;52.018;8.542;2023-07-29T02:20:23;19.00;99.90
3055;DHT22;1537;52.018;8.542;2023-07-29T02:23:47;19.00;99.90
3055;DHT22;1537;52.018;8.542;2023-07-29T02:27:11;19.00;99.90
3055;DHT22;1537;52.018;8.542;2023-07-29T02:30:36;19.00;99.90
3055;DHT22;1537;52.018;8.542;2023-07-29T02:34:01;18.90;99.90
3055;DHT22;1537;52.018;8.542;2023-07-29T02:37:25;18.80;99.90
3055;DHT22;1537;52.018;8.542;2023-07-29T02:40:49;18.80;99.90
3055;DHT22;1537;52.018;8.542;2023-07-29T02:44:12;18.80;99.90
3055;DHT22;1537;52.018;8.542;2023-07-29T02:47:36;18.80;99.90
3055;DHT22;1537;52.018;8.542;2023-07-29T02:51:01;18.80;99.90
3055;DHT22;1537;52.018;8.542;2023-07-29T02:54:25;18.80;99.90
3055;DHT22;1537;52.018;8.542;2023-07-29T02:57:49;18.80;99.90
3055;DHT22;1537;52.018;8.542;2023-07-29T03:01:12;18.90;99.90
3055;DHT22;1537;52.018;8.542;2023-07-29T03:04:36;18.90;99.90
3055;DHT22;1537;52.018;8.542;2023-07-29T03:08:01;18.90;99.90
3055;DHT22;1537;52.018;8.542;2023-07-29T03:11:25;19.00;99.90
3055;DHT22;1537;52.018;8.542;2023-07-29T03:14:48;19.00;99.90
3055;DHT22;1537;52.018;8.542;2023-07-29T03:18:12;19.00;99.90
3055;DHT22;1537;52.018;8.542;2023-07-29T03:21:36;19.00;99.90
3055;DHT22;1537;52.018;8.542;2023-07-29T03:25:01;19.00;99.90
3055;DHT22;1537;52.018;8.542;2023-07-29T03:28:27;19.10;99.90
3055;DHT22;1537;52.018;8.542;2023-07-29T03:31:51;19.10;99.90
3055;DHT22;1537;52.018;8.542;2023-07-29T03:35:15;19.10;99.90
3055;DHT22;1537;52.018;8.542;2023-07-29T03:38:39;19.10;99.90
3055;DHT22;1537;52.018;8.542;2023-07-29T03:42:05;19.20;99.90
3055;DHT22;1537;52.018;8.542;2023-07-29T03:45:29;19.20;99.90
3055;DHT22;1537;52.018;8.542;2023-07-29T03:48:53;19.30;99.90
3055;DHT22;1537;52.018;8.542;2023-07-29T03:52:16;19.30;99.90
3055;DHT22;1537;52.018;8.542;2023-07-29T03:55:40;19.30;99.90
3055;DHT22;1537;52.018;8.542;2023-07-29T03:59:05;19.30;99.90
3055;DHT22;1537;52.018;8.542;2023-07-29T04:02:29;19.30;99.90
3055;DHT22;1537;52.018;8.542;2023-07-29T04:05:54;19.30;99.90
3055;DHT22;1537;52.018;8.542;2023-07-29T04:09:18;19.30;99.90
3055;DHT22;1537;52.018;8.542;2023-07-29T04:12:42;19.30;99.90
3055;DHT22;1537;52.018;8.542;2023-07-29T04:16:07;19.30;99.90
3055;DHT22;1537;52.018;8.542;2023-07-29T04:19:31;19.30;99.90
3055;DHT22;1537;52.018;8.542;2023-07-29T04:22:55;19.30;99.90
3055;DHT22;1537;52.018;8.542;2023-07-29T04:26:19;19.30;99.90
3055;DHT22;1537;52.018;8.542;2023-07-29T04:29:42;19.40;99.90
3055;DHT22;1537;52.018;8.542;2023-07-29T04:33:07;19.40;99.90
3055;DHT22;1537;52.018;8.542;2023-07-29T04:36:32;19.50;99.90
3055;DHT22;1537;52.018;8.542;2023-07-29T04:39:56;19.50;99.90
3055;DHT22;1537;52.018;8.542;2023-07-29T04:43:20;19.50;99.90
3055;DHT22;1537;52.018;8.542;2023-07-29T04:46:44;19.50;99.90
3055;DHT22;1537;52.018;8.542;2023-07-29T04:50:09;19.60;99.90
3055;DHT22;1537;52.018;8.542;2023-07-29T04:53:33;19.60;99.90
3055;DHT22;1537;52.018;8.542;2023-07-29T04:56:57;19.70;99.90
3055;DHT22;1537;52.018;8.542;2023-07-29T05:00:22;19.70;99.90
3055;DHT22;1537;52.018;8.542;2023-07-29T05:03:46;19.70;99.90
3055;DHT22;1537;52.018;8.542;2023-07-29T05:07:11;19.70;99.90
3055;DHT22;1537;52.018;8.542;2023-07-29T05:10:34;19.60;99.90
3055;DHT22;1537;52.018;8.542;2023-07-29T05:13:58;19.70;99.90
3055;DHT22;1537;52.018;8.542;2023-07-29T05:17:22;19.80;99.90
3055;DHT22;1537;52.018;8.542;2023-07-29T05:20:46;19.70;99.90
3055;DHT22;1537;52.018;8.542;2023-07-29T05:24:11;19.50;99.90
3055;DHT22;1537;52.018;8.542;2023-07-29T05:27:35;19.50;99.90
3055;DHT22;1537;52.018;8.542;2023-07-29T05:31:00;19.60;99.90
3055;DHT22;1537;52.018;8.542;2023-07-29T05:34:24;19.60;99.90
3055;DHT22;1537;52.018;8.542;2023-07-29T05:37:48;19.80;99.90
3055;DHT22;1537;52.018;8.542;2023-07-29T05:41:14;19.90;99.90
3055;DHT22;1537;52.018;8.542;2023-07-29T05:44:37;19.90;99.90
3055;DHT22;1537;52.018;8.542;2023-07-29T05:48:01;20.10;99.90
3055;DHT22;1537;52.018;8.542;2023-07-29T05:51:25;20.00;99.90
3055;DHT22;1537;52.018;8.542;2023-07-29T05:54:48;20.00;99.90
3055;DHT22;1537;52.018;8.542;2023-07-29T05:58:13;20.10;99.90
3055;DHT22;1537;52.018;8.542;2023-07-29T06:01:37;20.10;99.90
3055;DHT22;1537;52.018;8.542;2023-07-29T06:05:01;20.10;99.90
3055;DHT22;1537;52.018;8.542;2023-07-29T06:08:27;20.00;99.90
3055;DHT22;1537;52.018;8.542;2023-07-29T06:11:51;20.00;99.90
3055;DHT22;1537;52.018;8.542;2023-07-29T06:15:18;20.10;99.90
3055;DHT22;1537;52.018;8.542;2023-07-29T06:18:45;20.10;99.90
3055;DHT22;1537;52.018;8.542;2023-07-29T06:22:10;20.10;99.90
3055;DHT22;1537;52.018;8.542;2023-07-29T06:25:33;20.20;99.90
3055;DHT22;1537;52.018;8.542;2023-07-29T06:28:57;20.30;99.90
3055;DHT22;1537;52.018;8.542;2023-07-29T06:32:22;20.20;99.90
3055;DHT22;1537;52.018;8.542;2023-07-29T06:35:46;20.20;99.90
3055;DHT22;1537;52.018;8.542;2023-07-29T06:39:09;20.20;99.90
3055;DHT22;1537;52.018;8.542;2023-07-29T06:42:33;20.30;99.90
3055;DHT22;1537;52.018;8.542;2023-07-29T06:45:56;20.30;99.90
3055;DHT22;1537;52.018;8.542;2023-07-29T06:49:21;20.30;99.90
3055;DHT22;1537;52.018;8.542;2023-07-29T06:52:45;20.30;99.90
3055;DHT22;1537;52.018;8.542;2023-07-29T06:56:09;20.40;99.90
3055;DHT22;1537;52.018;8.542;2023-07-29T06:59:33;20.60;99.90
3055;DHT22;1537;52.018;8.542;2023-07-29T07:02:56;20.70;99.90
3055;DHT22;1537;52.018;8.542;2023-07-29T07:06:22;20.80;99.90
3055;DHT22;1537;52.018;8.542;2023-07-29T07:09:47;20.70;99.90
3055;DHT22;1537;52.018;8.542;2023-07-29T07:13:10;20.50;99.90
3055;DHT22;1537;52.018;8.542;2023-07-29T07:16:34;20.40;99.90
3055;DHT22;1537;52.018;8.542;2023-07-29T07:19:59;20.40;99.90
3055;DHT22;1537;52.018;8.542;2023-07-29T07:23:24;20.40;99.90
3055;DHT22;1537;52.018;8.542;2023-07-29T07:26:48;20.40;99.90
3055;DHT22;1537;52.018;8.542;2023-07-29T07:30:12;20.30;99.90
3055;DHT22;1537;52.018;8.542;2023-07-29T07:33:35;20.20;99.90
3055;DHT22;1537;52.018;8.542;2023-07-29T07:36:59;20.10;99.90
3055;DHT22;1537;52.018;8.542;2023-07-29T07:40:25;20.10;99.90
3055;DHT22;1537;52.018;8.542;2023-07-29T07:43:48;20.30;99.90
3055;DHT22;1537;52.018;8.542;2023-07-29T07:47:12;21.40;99.90
3055;DHT22;1537;52.018;8.542;2023-07-29T07:50:35;22.00;99.90
3055;DHT22;1537;52.018;8.542;2023-07-29T07:53:59;22.00;99.90
3055;DHT22;1537;52.018;8.542;2023-07-29T07:57:24;21.70;99.90
3055;DHT22;1537;52.018;8.542;2023-07-29T08:00:48;21.70;99.90
3055;DHT22;1537;52.018;8.542;2023-07-29T08:04:11;22.00;99.90
3055;DHT22;1537;52.018;8.542;2023-07-29T08:07:35;22.20;99.90
3055;DHT22;1537;52.018;8.542;2023-07-29T08:10:58;22.40;99.90
3055;DHT22;1537;52.018;8.542;2023-07-29T08:14:23;22.30;99.90
3055;DHT22;1537;52.018;8.542;2023-07-29T08:17:48;22.10;99.90
3055;DHT22;1537;52.018;8.542;2023-07-29T08:21:12;22.00;99.90
3055;DHT22;1537;52.018;8.542;2023-07-29T08:24:35;22.00;99.90
3055;DHT22;1537;52.018;8.542;2023-07-29T08:27:59;22.00;99.90
3055;DHT22;1537;52.018;8.542;2023-07-29T08:31:24;21.90;99.90
3055;DHT22;1537;52.018;8.542;2023-07-29T08:34:48;21.90;99.90
3055;DHT22;1537;52.018;8.542;2023-07-29T08:38:11;21.60;99.90
3055;DHT22;1537;52.018;8.542;2023-07-29T08:41:39;21.40;99.90
3055;DHT22;1537;52.018;8.542;2023-07-29T08:45:07;21.30;99.90
3055;DHT22;1537;52.018;8.542;2023-07-29T08:48:39;21.40;99.90
3055;DHT22;1537;52.018;8.542;2023-07-29T08:52:04;21.60;99.90
3055;DHT22;1537;52.018;8.542;2023-07-29T08:55:29;21.80;99.90
3055;DHT22;1537;52.018;8.542;2023-07-29T08:58:53;23.00;99.90
3055;DHT22;1537;52.018;8.542;2023-07-29T09:02:18;23.30;99.90
3055;DHT22;1537;52.018;8.542;2023-07-29T09:05:43;23.80;99.90
3055;DHT22;1537;52.018;8.542;2023-07-29T09:09:07;24.70;99.90
3055;DHT22;1537;52.018;8.542;2023-07-29T09:12:31;24.60;99.90
3055;DHT22;1537;52.018;8.542;2023-07-29T09:15:57;24.40;99.90
3055;DHT22;1537;52.018;8.542;2023-07-29T09:19:21;23.90;99.90
3055;DHT22;1537;52.018;8.542;2023-07-29T09:22:49;23.80;99.90
3055;DHT22;1537;52.018;8.542;2023-07-29T09:26:13;23.90;99.90
3055;DHT22;1537;52.018;8.542;2023-07-29T09:29:37;24.30;99.90
3055;DHT22;1537;52.018;8.542;2023-07-29T09:33:01;26.10;99.90
3055;DHT22;1537;52.018;8.542;2023-07-29T09:36:24;28.20;99.90
3055;DHT22;1537;52.018;8.542;2023-07-29T09:39:50;29.90;99.90
3055;DHT22;1537;52.018;8.542;2023-07-29T09:43:17;30.20;99.90
3055;DHT22;1537;52.018;8.542;2023-07-29T09:46:40;31.10;98.60
3055;DHT22;1537;52.018;8.542;2023-07-29T09:50:09;30.70;96.10
3055;DHT22;1537;52.018;8.542;2023-07-29T09:53:33;28.70;98.60
3055;DHT22;1537;52.018;8.542;2023-07-29T09:56:58;28.50;99.50
3055;DHT22;1537;52.018;8.542;2023-07-29T10:00:22;28.80;99.60
3055;DHT22;1537;52.018;8.542;2023-07-29T10:03:46;29.00;99.60
3055;DHT22;1537;52.018;8.542;2023-07-29T10:07:10;29.80;98.90
3055;DHT22;1537;52.018;8.542;2023-07-29T10:10:34;30.70;95.90
3055;DHT22;1537;52.018;8.542;2023-07-29T10:14:00;28.90;97.70
3055;DHT22;1537;52.018;8.542;2023-07-29T10:17:30;28.50;98.90
3055;DHT22;1537;52.018;8.542;2023-07-29T10:20:57;29.20;97.10
3055;DHT22;1537;52.018;8.542;2023-07-29T10:24:24;29.30;97.00
3055;DHT22;1537;52.018;8.542;2023-07-29T10:27:56;30.60;94.70
3055;DHT22;1537;52.018;8.542;2023-07-29T10:31:22;30.00;94.00
3055;DHT22;1537;52.018;8.542;2023-07-29T10:34:46;29.70;94.50
3055;DHT22;1537;52.018;8.542;2023-07-29T10:38:10;30.00;93.90
3055;DHT22;1537;52.018;8.542;2023-07-29T10:41:57;30.00;93.40
3055;DHT22;1537;52.018;8.542;2023-07-29T10:45:21;28.40;94.60
3055;DHT22;1537;52.018;8.542;2023-07-29T10:48:54;27.40;96.10
3055;DHT22;1537;52.018;8.542;2023-07-29T10:52:29;28.20;96.00
3055;DHT22;1537;52.018;8.542;2023-07-29T10:55:53;27.90;96.00
3055;DHT22;1537;52.018;8.542;2023-07-29T10:59:34;26.90;97.80
3055;DHT22;1537;52.018;8.542;2023-07-29T11:02:59;27.20;97.70
3055;DHT22;1537;52.018;8.542;2023-07-29T11:06:25;27.70;97.10
3055;DHT22;1537;52.018;8.542;2023-07-29T11:10:00;27.70;97.00
3055;DHT22;1537;52.018;8.542;2023-07-29T11:13:26;27.80;96.60
3055;DHT22;1537;52.018;8.542;2023-07-29T11:16:50;27.50;97.40
3055;DHT22;1537;52.018;8.542;2023-07-29T11:20:16;26.80;98.20
3055;DHT22;1537;52.018;8.542;2023-07-29T11:23:41;26.10;98.60
3055;DHT22;1537;52.018;8.542;2023-07-29T11:27:05;25.50;99.90
3055;DHT22;1537;52.018;8.542;2023-07-29T11:30:29;25.70;99.90
3055;DHT22;1537;52.018;8.542;2023-07-29T11:33:53;25.70;99.90
3055;DHT22;1537;52.018;8.542;2023-07-29T11:37:17;25.30;99.90
3055;DHT22;1537;52.018;8.542;2023-07-29T11:40:53;25.20;99.90
3055;DHT22;1537;52.018;8.542;2023-07-29T11:44:16;25.30;99.90
3055;DHT22;1537;52.018;8.542;2023-07-29T11:47:40;25.40;99.90
3055;DHT22;1537;52.018;8.542;2023-07-29T11:51:04;25.70;99.90
3055;DHT22;1537;52.018;8.542;2023-07-29T11:54:28;25.80;99.90
3055;DHT22;1537;52.018;8.542;2023-07-29T11:57:53;25.90;99.90
3055;DHT22;1537;52.018;8.542;2023-07-29T12:01:17;25.80;99.90
3055;DHT22;1537;52.018;8.542;2023-07-29T12:04:41;25.60;99.90
3055;DHT22;1537;52.018;8.542;2023-07-29T12:08:08;25.30;99.90
3055;DHT22;1537;52.018;8.542;2023-07-29T12:11:32;25.50;99.90
3055;DHT22;1537;52.018;8.542;2023-07-29T12:14:58;25.70;99.90
3055;DHT22;1537;52.018;8.542;2023-07-29T12:18:30;25.40;99.90
3055;DHT22;1537;52.018;8.542;2023-07-29T12:21:54;25.40;99.90
3055;DHT22;1537;52.018;8.542;2023-07-29T12:25:18;25.70;99.90
3055;DHT22;1537;52.018;8.542;2023-07-29T12:28:45;25.80;99.90
3055;DHT22;1537;52.018;8.542;2023-07-29T12:32:10;25.70;99.90
3055;DHT22;1537;52.018;8.542;2023-07-29T12:35:36;25.50;99.90
3055;DHT22;1537;52.018;8.542;2023-07-29T12:38:59;25.30;99.90
3055;DHT22;1537;52.018;8.542;2023-07-29T12:42:23;25.30;99.90
3055;DHT22;1537;52.018;8.542;2023-07-29T12:45:49;25.10;99.90
3055;DHT22;1537;52.018;8.542;2023-07-29T12:49:14;25.10;99.90
3055;DHT22;1537;52.018;8.542;2023-07-29T12:52:37;25.30;99.90
3055;DHT22;1537;52.018;8.542;2023-07-29T12:56:01;25.40;99.90
3055;DHT22;1537;52.018;8.542;2023-07-29T12:59:25;25.50;99.90
3055;DHT22;1537;52.018;8.542;2023-07-29T13:02:49;25.40;99.90
3055;DHT22;1537;52.018;8.542;2023-07-29T13:06:15;25.20;99.90
3055;DHT22;1537;52.018;8.542;2023-07-29T13:09:38;25.10;99.90
3055;DHT22;1537;52.018;8.542;2023-07-29T13:13:02;25.00;99.90
3055;DHT22;1537;52.018;8.542;2023-07-29T13:16:26;25.00;99.90
3055;DHT22;1537;52.018;8.542;2023-07-29T13:19:50;25.10;99.90
3055;DHT22;1537;52.018;8.542;2023-07-29T13:23:16;25.10;99.90
3055;DHT22;1537;52.018;8.542;2023-07-29T13:26:39;25.00;99.90
3055;DHT22;1537;52.018;8.542;2023-07-29T13:30:05;25.10;99.90
3055;DHT22;1537;52.018;8.542;2023-07-29T13:33:29;25.30;99.90
3055;DHT22;1537;52.018;8.542;2023-07-29T13:36:56;25.30;99.90
3055;DHT22;1537;52.018;8.542;2023-07-29T13:40:21;25.00;99.90
3055;DHT22;1537;52.018;8.542;2023-07-29T13:43:44;24.90;99.90
3055;DHT22;1537;52.018;8.542;2023-07-29T13:47:08;24.80;99.90
3055;DHT22;1537;52.018;8.542;2023-07-29T13:50:32;24.90;99.90
3055;DHT22;1537;52.018;8.542;2023-07-29T13:53:55;24.80;99.90
3055;DHT22;1537;52.018;8.542;2023-07-29T13:57:20;25.00;99.90
3055;DHT22;1537;52.018;8.542;2023-07-29T14:00:44;25.40;99.90
3055;DHT22;1537;52.018;8.542;2023-07-29T14:04:08;25.60;99.90
3055;DHT22;1537;52.018;8.542;2023-07-29T14:07:31;25.70;99.90
3055;DHT22;1537;52.018;8.542;2023-07-29T14:10:55;25.90;99.90
3055;DHT22;1537;52.018;8.542;2023-07-29T14:14:20;26.10;99.90
3055;DHT22;1537;52.018;8.542;2023-07-29T14:17:44;26.00;99.90
3055;DHT22;1537;52.018;8.542;2023-07-29T14:21:07;25.50;99.90
3055;DHT22;1537;52.018;8.542;2023-07-29T14:24:31;25.20;99.90
3055;DHT22;1537;52.018;8.542;2023-07-29T14:27:55;25.00;99.90
3055;DHT22;1537;52.018;8.542;2023-07-29T14:31:20;25.10;99.90
3055;DHT22;1537;52.018;8.542;2023-07-29T14:34:44;25.10;99.90
3055;DHT22;1537;52.018;8.542;2023-07-29T14:38:08;25.20;99.90
3055;DHT22;1537;52.018;8.542;2023-07-29T14:41:31;25.00;99.90
3055;DHT22;1537;52.018;8.542;2023-07-29T14:44:55;24.90;99.90
3055;DHT22;1537;52.018;8.542;2023-07-29T14:48:20;24.70;99.90
3055;DHT22;1537;52.018;8.542;2023-07-29T14:51:44;24.50;99.90
3055;DHT22;1537;52.018;8.542;2023-07-29T14:55:07;24.30;99.90
3055;DHT22;1537;52.018;8.542;2023-07-29T14:58:31;24.10;99.90
3055;DHT22;1537;52.018;8.542;2023-07-29T15:01:55;24.20;99.90
3055;DHT22;1537;52.018;8.542;2023-07-29T15:05:20;24.20;99.90
3055;DHT22;1537;52.018;8.542;2023-07-29T15:08:43;24.10;99.90
3055;DHT22;1537;52.018;8.542;2023-07-29T15:12:08;23.80;99.90
3055;DHT22;1537;52.018;8.542;2023-07-29T15:15:32;23.30;99.90
3055;DHT22;1537;52.018;8.542;2023-07-29T15:18:57;22.90;99.90
3055;DHT22;1537;52.018;8.542;2023-07-29T15:22:22;22.20;99.90
3055;DHT22;1537;52.018;8.542;2023-07-29T15:25:46;21.60;99.90
3055;DHT22;1537;52.018;8.542;2023-07-29T15:29:10;20.80;99.90
3055;DHT22;1537;52.018;8.542;2023-07-29T15:32:34;20.50;99.90
3055;DHT22;1537;52.018;8.542;2023-07-29T15:35:58;20.40;99.90
3055;DHT22;1537;52.018;8.542;2023-07-29T15:39:23;20.30;99.90
3055;DHT22;1537;52.018;8.542;2023-07-29T15:42:46;20.30;99.90
3055;DHT22;1537;52.018;8.542;2023-07-29T15:46:10;20.00;99.90
3055;DHT22;1537;52.018;8.542;2023-07-29T15:49:34;19.80;99.90
3055;DHT22;1537;52.018;8.542;2023-07-29T15:52:57;19.70;99.90
3055;DHT22;1537;52.018;8.542;2023-07-29T15:56:22;19.40;99.90
3055;DHT22;1537;52.018;8.542;2023-07-29T15:59:46;19.30;99.90
3055;DHT22;1537;52.018;8.542;2023-07-29T16:03:10;19.20;99.90
3055;DHT22;1537;52.018;8.542;2023-07-29T16:06:33;19.10;99.90
3055;DHT22;1537;52.018;8.542;2023-07-29T16:09:58;19.20;99.90
3055;DHT22;1537;52.018;8.542;2023-07-29T16:13:23;19.30;99.90
3055;DHT22;1537;52.018;8.542;2023-07-29T16:16:47;19.50;99.90
3055;DHT22;1537;52.018;8.542;2023-07-29T16:20:11;19.60;99.90
3055;DHT22;1537;52.018;8.542;2023-07-29T16:23:36;19.70;99.90
3055;DHT22;1537;52.018;8.542;2023-07-29T16:26:59;19.80;99.90
3055;DHT22;1537;52.018;8.542;2023-07-29T16:30:24;19.80;99.90
3055;DHT22;1537;52.018;8.542;2023-07-29T16:33:48;19.90;99.90
3055;DHT22;1537;52.018;8.542;2023-07-29T16:37:12;19.90;99.90
3055;DHT22;1537;52.018;8.542;2023-07-29T16:40:36;19.80;99.90
3055;DHT22;1537;52.018;8.542;2023-07-29T16:43:59;19.50;99.90
3055;DHT22;1537;52.018;8.542;2023-07-29T16:47:24;19.50;99.90
3055;DHT22;1537;52.018;8.542;2023-07-29T16:50:49;19.50;99.90
3055;DHT22;1537;52.018;8.542;2023-07-29T16:54:12;19.50;99.90
3055;DHT22;1537;52.018;8.542;2023-07-29T16:57:40;19.70;99.90
3055;DHT22;1537;52.018;8.542;2023-07-29T17:01:03;19.70;99.90
3055;DHT22;1537;52.018;8.542;2023-07-29T17:04:28;19.80;99.90
3055;DHT22;1537;52.018;8.542;2023-07-29T17:07:52;19.70;99.90
3055;DHT22;1537;52.018;8.542;2023-07-29T17:11:15;19.70;99.90
3055;DHT22;1537;52.018;8.542;2023-07-29T17:14:39;19.70;99.90
3055;DHT22;1537;52.018;8.542;2023-07-29T17:18:03;19.70;99.90
3055;DHT22;1537;52.018;8.542;2023-07-29T17:21:28;19.70;99.90
3055;DHT22;1537;52.018;8.542;2023-07-29T17:24:52;19.70;99.90
3055;DHT22;1537;52.018;8.542;2023-07-29T17:28:15;19.70;99.90
3055;DHT22;1537;52.018;8.542;2023-07-29T17:31:39;19.70;99.90
3055;DHT22;1537;52.018;8.542;2023-07-29T17:35:06;19.80;99.90
3055;DHT22;1537;52.018;8.542;2023-07-29T17:38:31;19.80;99.90
3055;DHT22;1537;52.018;8.542;2023-07-29T17:41:54;19.80;99.90
3055;DHT22;1537;52.018;8.542;2023-07-29T17:45:18;19.90;99.90
3055;DHT22;1537;52.018;8.542;2023-07-29T17:48:42;19.90;99.90
3055;DHT22;1537;52.018;8.542;2023-07-29T17:52:06;19.90;99.90
3055;DHT22;1537;52.018;8.542;2023-07-29T17:55:37;19.90;99.90
3055;DHT22;1537;52.018;8.542;2023-07-29T17:59:01;19.80;99.90
3055;DHT22;1537;52.018;8.542;2023-07-29T18:02:24;19.80;99.90
3055;DHT22;1537;52.018;8.542;2023-07-29T18:05:48;19.80;99.90
3055;DHT22;1537;52.018;8.542;2023-07-29T18:09:12;19.80;99.90
3055;DHT22;1537;52.018;8.542;2023-07-29T18:12:37;19.80;99.90
3055;DHT22;1537;52.018;8.542;2023-07-29T18:16:04;19.70;99.90
3055;DHT22;1537;52.018;8.542;2023-07-29T18:19:28;19.70;99.90
3055;DHT22;1537;52.018;8.542;2023-07-29T18:22:53;19.70;99.90
3055;DHT22;1537;52.018;8.542;2023-07-29T18:26:16;19.70;99.90
3055;DHT22;1537;52.018;8.542;2023-07-29T18:29:41;19.50;99.90
3055;DHT22;1537;52.018;8.542;2023-07-29T18:33:05;19.30;99.90
3055;DHT22;1537;52.018;8.542;2023-07-29T18:36:30;19.20;99.90
3055;DHT22;1537;52.018;8.542;2023-07-29T18:39:54;19.10;99.90
3055;DHT22;1537;52.018;8.542;2023-07-29T18:43:17;19.10;99.90
3055;DHT22;1537;52.018;8.542;2023-07-29T18:46:42;18.90;99.90
3055;DHT22;1537;52.018;8.542;2023-07-29T18:50:07;18.80;99.90
3055;DHT22;1537;52.018;8.542;2023-07-29T18:53:30;18.60;99.90
3055;DHT22;1537;52.018;8.542;2023-07-29T18:56:54;18.60;99.90
3055;DHT22;1537;52.018;8.542;2023-07-29T19:00:18;18.50;99.90
3055;DHT22;1537;52.018;8.542;2023-07-29T19:03:43;18.50;99.90
3055;DHT22;1537;52.018;8.542;2023-07-29T19:07:08;18.50;99.90
3055;DHT22;1537;52.018;8.542;2023-07-29T19:10:32;18.40;99.90
3055;DHT22;1537;52.018;8.542;2023-07-29T19:13:57;18.50;99.90
3055;DHT22;1537;52.018;8.542;2023-07-29T19:17:21;18.40;99.90
3055;DHT22;1537;52.018;8.542;2023-07-29T19:20:49;18.30;99.90
3055;DHT22;1537;52.018;8.542;2023-07-29T19:24:14;18.30;99.90
3055;DHT22;1537;52.018;8.542;2023-07-29T19:27:37;18.30;99.90
3055;DHT22;1537;52.018;8.542;2023-07-29T19:31:01;18.40;99.90
3055;DHT22;1537;52.018;8.542;2023-07-29T19:34:25;18.40;99.90
3055;DHT22;1537;52.018;8.542;2023-07-29T19:37:50;18.50;99.90
3055;DHT22;1537;52.018;8.542;2023-07-29T19:41:13;18.50;99.90
3055;DHT22;1537;52.018;8.542;2023-07-29T19:44:37;18.60;99.90
3055;DHT22;1537;52.018;8.542;2023-07-29T19:48:01;18.70;99.90
3055;DHT22;1537;52.018;8.542;2023-07-29T19:51:28;18.70;99.90
3055;DHT22;1537;52.018;8.542;2023-07-29T19:54:55;18.80;99.90
3055;DHT22;1537;52.018;8.542;2023-07-29T19:58:19;18.80;99.90
3055;DHT22;1537;52.018;8.542;2023-07-29T20:01:43;18.90;99.90
3055;DHT22;1537;52.018;8.542;2023-07-29T20:05:07;18.90;99.90
3055;DHT22;1537;52.018;8.542;2023-07-29T20:08:31;18.80;99.90
3055;DHT22;1537;52.018;8.542;2023-07-29T20:11:56;18.80;99.90
3055;DHT22;1537;52.018;8.542;2023-07-29T20:15:20;18.80;99.90
3055;DHT22;1537;52.018;8.542;2023-07-29T20:18:44;18.80;99.90
3055;DHT22;1537;52.018;8.542;2023-07-29T20:22:07;18.70;99.90
3055;DHT22;1537;52.018;8.542;2023-07-29T20:25:31;18.80;99.90
3055;DHT22;1537;52.018;8.542;2023-07-29T20:28:56;18.80;99.90
3055;DHT22;1537;52.018;8.542;2023-07-29T20:32:19;18.80;99.90
3055;DHT22;1537;52.018;8.542;2023-07-29T20:35:43;18.70;99.90
3055;DHT22;1537;52.018;8.542;2023-07-29T20:39:06;18.70;99.90
3055;DHT22;1537;52.018;8.542;2023-07-29T20:42:30;18.70;99.90
3055;DHT22;1537;52.018;8.542;2023-07-29T20:45:55;18.70;99.90
3055;DHT22;1537;52.018;8.542;2023-07-29T20:49:19;18.60;99.90
3055;DHT22;1537;52.018;8.542;2023-07-29T20:52:43;18.60;99.90
3055;DHT22;1537;52.018;8.542;2023-07-29T20:56:06;18.60;99.90
3055;DHT22;1537;52.018;8.542;2023-07-29T20:59:30;18.50;99.90
3055;DHT22;1537;52.018;8.542;2023-07-29T21:02:55;18.50;99.90
3055;DHT22;1537;52.018;8.542;2023-07-29T21:06:19;18.50;99.90
3055;DHT22;1537;52.018;8.542;2023-07-29T21:09:42;18.50;99.90
3055;DHT22;1537;52.018;8.542;2023-07-29T21:13:06;18.50;99.90
3055;DHT22;1537;52.018;8.542;2023-07-29T21:16:30;18.50;99.90
3055;DHT22;1537;52.018;8.542;2023-07-29T21:19:55;18.50;99.90
3055;DHT22;1537;52.018;8.542;2023-07-29T21:23:18;18.50;99.90
3055;DHT22;1537;52.018;8.542;2023-07-29T21:26:42;18.50;99.90
3055;DHT22;1537;52.018;8.542;2023-07-29T21:30:07;18.50;99.90
3055;DHT22;1537;52.018;8.542;2023-07-29T21:33:31;18.50;99.90
3055;DHT22;1537;52.018;8.542;2023-07-29T21:36:57;18.40;99.90
3055;DHT22;1537;52.018;8.542;2023-07-29T21:40:21;18.30;99.90
3055;DHT22;1537;52.018;8.542;2023-07-29T21:43:45;18.30;99.90
3055;DHT22;1537;52.018;8.542;2023-07-29T21:47:09;18.20;99.90
3055;DHT22;1537;52.018;8.542;2023-07-29T21:50:33;18.30;99.90
3055;DHT22;1537;52.018;8.542;2023-07-29T21:53:58;18.30;99.90
3055;DHT22;1537;52.018;8.542;2023-07-29T21:57:21;18.30;99.90
3055;DHT22;1537;52.018;8.542;2023-07-29T22:00:50;18.30;99.90
3055;DHT22;1537;52.018;8.542;2023-07-29T22:04:14;18.40;99.90
3055;DHT22;1537;52.018;8.542;2023-07-29T22:07:37;18.40;99.90
3055;DHT22;1537;52.018;8.542;2023-07-29T22:11:04;18.30;99.90
3055;DHT22;1537;52.018;8.542;2023-07-29T22:14:28;18.30;99.90